Meteo Giornale » Osservazioni meteo Francia » Lione-Bron

ore: 18:30 - Osservazioni Meteo Lione-Bron
Lat. 45° 43' N Lon. 4° 57' E Alt. 200 metri s.l.m.

sereno Europe/Paris

13 °C

Sereno

Temp. 24 Ore

3 °C

16 °C

Nord/Nord-Est

7.4 Km/h

Dew point 4 °C

Umidità 54 %

Visibilità  10 Km

Il sole sorge alle ore 07:11

Il sole tramonta alle ore 18:32

Data e Ora Cielo e Fenomeni T °C DP °C Um. % Pres. hPa Vis. km Vento km/h
Oggi h: 18:30 sereno Sereno 13 4 54 1019 10 N/NE 7.4
Oggi h: 17:30 sereno Sereno 16 2 38 1019 10 N 5.5
Oggi h: 17:00 sereno Sereno 16 1 36 1019 10 N/NE 7.4
Oggi h: 16:30 sereno Sereno 16 2 38 1019 10 N 5.5
Oggi h: 16:00 sereno Sereno 16 2 38 1019 10 N 3.7
Oggi h: 15:00 sereno Sereno 16 1 36 1020 10 N 3.7
Oggi h: 14:30 sereno Sereno 16 -1 31 1020 10 N 3.7
Oggi h: 14:00 sereno Sereno 16 3 41 1021 10 N 5.5
Oggi h: 13:30 sereno Sereno 16 4 44 1021 10 N 3.7
Oggi h: 13:00 sereno Sereno 15 2 41 1022 10 N 5.5
Oggi h: 12:30 sereno Sereno 14 3 47 1022 10 N 5.5
Oggi h: 12:00 sereno Sereno 14 4 50 1022 10 N 3.7
Oggi h: 11:00 sereno Sereno 11 5 66 1023 10 N 5.5
Oggi h: 10:30 sereno Sereno 10 5 71 1023 10 S 7.4
Oggi h: 10:00 sereno Sereno 10 5 71 1023 10 N 5.5
Oggi h: 09:30 sereno Sereno 9 5 75 1024 10 N 1.8
Oggi h: 09:00 sereno Sereno 7 4 81 1024 10 N 1.8
Oggi h: 08:30 sereno Sereno 5 3 86 1024 10 N 0
Oggi h: 08:00 sereno Sereno 3 2 93 1024 10 N 3.7
Oggi h: 07:30 sereno Sereno 3 1 86 1024 10 N 1.8
Oggi h: 07:00 sereno Sereno 3 1 86 1024 10 N 0
Oggi h: 06:30 sereno Sereno 3 1 86 1024 10 N 3.7
Oggi h: 05:30 sereno Sereno 3 1 86 1024 10 N 0
Oggi h: 05:00 sereno Sereno 4 1 80 1024 10 N 0
Oggi h: 04:30 sereno Sereno 4 1 80 1024 10 N 3.7
Oggi h: 04:00 sereno Sereno 4 2 86 1025 10 N 3.7
Oggi h: 03:30 sereno Sereno 5 1 75 1025 10 N 3.7
Oggi h: 02:30 sereno Sereno 5 1 75 1026 10 N 0
Oggi h: 01:30 sereno Sereno 6 2 75 1026 10 N 5.5
Oggi h: 01:00 sereno Sereno 6 2 75 1026 10 N 3.7
Oggi h: 00:30 sereno Sereno 7 2 70 1026 10 N 5.5
Oggi h: 00:00 sereno Sereno 7 2 70 1027 10 N 3.7
Ieri h: 23:30 sereno Sereno 8 2 65 1027 10 N 1.8
Ieri h: 23:00 sereno Sereno 9 1 57 1027 10 N 3.7
Ieri h: 22:30 sereno Sereno 10 2 57 1027 10 N 5.5
Ieri h: 22:00 sereno Sereno 10 1 53 1027 10 N 3.7
Ieri h: 21:30 sereno Sereno 11 1 50 1027 10 S/SE 7.4
Ieri h: 20:30 sereno Sereno 11 1 50 1027 10 N 5.5